sensor_id;sensor_type;location;lat;lon;timestamp;temperature;humidity
16964;DHT22;8598;50.508;10.436;2023-04-03T00:01:18;3.30;99.90
16964;DHT22;8598;50.508;10.436;2023-04-03T00:03:46;3.20;99.90
16964;DHT22;8598;50.508;10.436;2023-04-03T00:06:13;3.20;99.90
16964;DHT22;8598;50.508;10.436;2023-04-03T00:08:40;3.20;99.90
16964;DHT22;8598;50.508;10.436;2023-04-03T00:11:07;3.10;99.90
16964;DHT22;8598;50.508;10.436;2023-04-03T00:13:34;3.10;99.90
16964;DHT22;8598;50.508;10.436;2023-04-03T00:16:00;3.10;99.90
16964;DHT22;8598;50.508;10.436;2023-04-03T00:18:28;3.00;99.90
16964;DHT22;8598;50.508;10.436;2023-04-03T00:20:56;2.90;99.90
16964;DHT22;8598;50.508;10.436;2023-04-03T00:23:23;2.90;99.90
16964;DHT22;8598;50.508;10.436;2023-04-03T00:25:49;2.90;99.90
16964;DHT22;8598;50.508;10.436;2023-04-03T00:28:16;2.70;99.90
16964;DHT22;8598;50.508;10.436;2023-04-03T00:30:43;2.60;99.90
16964;DHT22;8598;50.508;10.436;2023-04-03T00:33:11;2.50;99.90
16964;DHT22;8598;50.508;10.436;2023-04-03T00:35:38;2.40;99.90
16964;DHT22;8598;50.508;10.436;2023-04-03T00:38:06;2.20;99.90
16964;DHT22;8598;50.508;10.436;2023-04-03T00:40:34;2.30;99.90
16964;DHT22;8598;50.508;10.436;2023-04-03T00:43:01;2.20;99.90
16964;DHT22;8598;50.508;10.436;2023-04-03T00:45:33;2.20;99.90
16964;DHT22;8598;50.508;10.436;2023-04-03T00:48:01;2.00;99.90
16964;DHT22;8598;50.508;10.436;2023-04-03T00:50:31;2.00;99.90
16964;DHT22;8598;50.508;10.436;2023-04-03T00:52:59;2.00;99.90
16964;DHT22;8598;50.508;10.436;2023-04-03T00:55:27;1.90;99.90
16964;DHT22;8598;50.508;10.436;2023-04-03T00:57:55;1.80;99.90
16964;DHT22;8598;50.508;10.436;2023-04-03T01:00:22;1.80;99.90
16964;DHT22;8598;50.508;10.436;2023-04-03T01:02:50;1.80;99.90
16964;DHT22;8598;50.508;10.436;2023-04-03T01:05:17;1.80;99.90
16964;DHT22;8598;50.508;10.436;2023-04-03T01:07:46;1.70;99.90
16964;DHT22;8598;50.508;10.436;2023-04-03T01:10:15;1.70;99.90
16964;DHT22;8598;50.508;10.436;2023-04-03T01:12:46;1.80;99.90
16964;DHT22;8598;50.508;10.436;2023-04-03T01:15:14;1.70;99.90
16964;DHT22;8598;50.508;10.436;2023-04-03T01:17:43;1.80;99.90
16964;DHT22;8598;50.508;10.436;2023-04-03T01:23:30;1.70;99.90
16964;DHT22;8598;50.508;10.436;2023-04-03T01:25:59;1.70;99.90
16964;DHT22;8598;50.508;10.436;2023-04-03T01:28:28;1.70;99.90
16964;DHT22;8598;50.508;10.436;2023-04-03T01:31:00;1.70;99.90
16964;DHT22;8598;50.508;10.436;2023-04-03T01:33:30;1.70;99.90
16964;DHT22;8598;50.508;10.436;2023-04-03T01:35:56;1.70;99.90
16964;DHT22;8598;50.508;10.436;2023-04-03T01:38:23;1.70;99.90
16964;DHT22;8598;50.508;10.436;2023-04-03T01:40:50;1.70;99.90
16964;DHT22;8598;50.508;10.436;2023-04-03T01:43:17;1.70;99.90
16964;DHT22;8598;50.508;10.436;2023-04-03T01:45:44;1.60;99.90
16964;DHT22;8598;50.508;10.436;2023-04-03T01:48:12;1.60;99.90
16964;DHT22;8598;50.508;10.436;2023-04-03T01:50:40;1.50;99.90
16964;DHT22;8598;50.508;10.436;2023-04-03T01:53:08;1.50;99.90
16964;DHT22;8598;50.508;10.436;2023-04-03T01:55:35;1.50;99.90
16964;DHT22;8598;50.508;10.436;2023-04-03T01:58:01;1.50;99.90
16964;DHT22;8598;50.508;10.436;2023-04-03T02:00:28;1.40;99.90
16964;DHT22;8598;50.508;10.436;2023-04-03T02:02:55;1.40;99.90
16964;DHT22;8598;50.508;10.436;2023-04-03T02:05:22;1.40;99.90
16964;DHT22;8598;50.508;10.436;2023-04-03T02:07:50;1.40;99.90
16964;DHT22;8598;50.508;10.436;2023-04-03T02:10:17;1.30;99.90
16964;DHT22;8598;50.508;10.436;2023-04-03T02:12:44;1.20;99.90
16964;DHT22;8598;50.508;10.436;2023-04-03T02:15:10;1.30;99.90
16964;DHT22;8598;50.508;10.436;2023-04-03T02:17:37;1.30;99.90
16964;DHT22;8598;50.508;10.436;2023-04-03T02:20:04;1.30;99.90
16964;DHT22;8598;50.508;10.436;2023-04-03T02:22:31;1.20;99.90
16964;DHT22;8598;50.508;10.436;2023-04-03T02:24:59;1.20;99.90
16964;DHT22;8598;50.508;10.436;2023-04-03T02:27:26;1.20;99.90
16964;DHT22;8598;50.508;10.436;2023-04-03T02:29:53;1.20;99.90
16964;DHT22;8598;50.508;10.436;2023-04-03T02:32:19;1.20;99.90
16964;DHT22;8598;50.508;10.436;2023-04-03T02:34:46;1.20;99.90
16964;DHT22;8598;50.508;10.436;2023-04-03T02:37:12;1.10;99.90
16964;DHT22;8598;50.508;10.436;2023-04-03T02:39:39;1.20;99.90
16964;DHT22;8598;50.508;10.436;2023-04-03T02:42:07;1.20;99.90
16964;DHT22;8598;50.508;10.436;2023-04-03T02:44:34;1.20;99.90
16964;DHT22;8598;50.508;10.436;2023-04-03T02:47:01;1.20;99.90
16964;DHT22;8598;50.508;10.436;2023-04-03T02:49:28;1.20;99.90
16964;DHT22;8598;50.508;10.436;2023-04-03T02:51:54;1.20;99.90
16964;DHT22;8598;50.508;10.436;2023-04-03T02:54:21;1.30;99.90
16964;DHT22;8598;50.508;10.436;2023-04-03T02:56:48;1.20;99.90
16964;DHT22;8598;50.508;10.436;2023-04-03T02:59:16;1.30;99.90
16964;DHT22;8598;50.508;10.436;2023-04-03T03:01:43;1.30;99.90
16964;DHT22;8598;50.508;10.436;2023-04-03T03:04:09;1.20;99.90
16964;DHT22;8598;50.508;10.436;2023-04-03T03:06:36;1.30;99.90
16964;DHT22;8598;50.508;10.436;2023-04-03T03:09:03;1.10;99.90
16964;DHT22;8598;50.508;10.436;2023-04-03T03:11:31;1.00;99.90
16964;DHT22;8598;50.508;10.436;2023-04-03T03:13:57;1.10;99.90
16964;DHT22;8598;50.508;10.436;2023-04-03T03:16:26;1.10;99.90
16964;DHT22;8598;50.508;10.436;2023-04-03T03:18:52;1.10;99.90
16964;DHT22;8598;50.508;10.436;2023-04-03T03:21:19;1.00;99.90
16964;DHT22;8598;50.508;10.436;2023-04-03T03:23:46;1.00;99.90
16964;DHT22;8598;50.508;10.436;2023-04-03T03:26:12;1.00;99.90
16964;DHT22;8598;50.508;10.436;2023-04-03T03:28:39;1.00;99.90
16964;DHT22;8598;50.508;10.436;2023-04-03T03:31:08;0.90;99.90
16964;DHT22;8598;50.508;10.436;2023-04-03T03:33:36;0.80;99.90
16964;DHT22;8598;50.508;10.436;2023-04-03T03:36:03;0.70;99.90
16964;DHT22;8598;50.508;10.436;2023-04-03T03:38:30;0.70;99.90
16964;DHT22;8598;50.508;10.436;2023-04-03T03:40:56;0.60;99.90
16964;DHT22;8598;50.508;10.436;2023-04-03T03:43:23;0.60;99.90
16964;DHT22;8598;50.508;10.436;2023-04-03T03:45:51;0.60;99.90
16964;DHT22;8598;50.508;10.436;2023-04-03T03:48:18;0.50;99.90
16964;DHT22;8598;50.508;10.436;2023-04-03T03:50:46;0.40;99.90
16964;DHT22;8598;50.508;10.436;2023-04-03T03:53:13;0.30;99.90
16964;DHT22;8598;50.508;10.436;2023-04-03T03:55:40;0.30;99.90
16964;DHT22;8598;50.508;10.436;2023-04-03T03:58:07;0.30;99.90
16964;DHT22;8598;50.508;10.436;2023-04-03T04:00:34;0.20;99.90
16964;DHT22;8598;50.508;10.436;2023-04-03T04:03:01;0.10;99.90
16964;DHT22;8598;50.508;10.436;2023-04-03T04:05:27;0.00;99.90
16964;DHT22;8598;50.508;10.436;2023-04-03T04:07:55;0.00;99.90
16964;DHT22;8598;50.508;10.436;2023-04-03T04:10:22;0.00;99.90
16964;DHT22;8598;50.508;10.436;2023-04-03T04:12:48;0.00;99.90
16964;DHT22;8598;50.508;10.436;2023-04-03T04:15:16;0.00;99.90
16964;DHT22;8598;50.508;10.436;2023-04-03T04:17:43;-0.10;99.90
16964;DHT22;8598;50.508;10.436;2023-04-03T04:20:10;0.00;99.90
16964;DHT22;8598;50.508;10.436;2023-04-03T04:22:37;0.10;99.90
16964;DHT22;8598;50.508;10.436;2023-04-03T04:25:06;0.10;99.90
16964;DHT22;8598;50.508;10.436;2023-04-03T04:27:32;0.20;99.90
16964;DHT22;8598;50.508;10.436;2023-04-03T04:29:59;0.20;99.90
16964;DHT22;8598;50.508;10.436;2023-04-03T04:32:26;0.30;99.90
16964;DHT22;8598;50.508;10.436;2023-04-03T04:34:52;0.40;99.90
16964;DHT22;8598;50.508;10.436;2023-04-03T04:37:19;0.40;99.90
16964;DHT22;8598;50.508;10.436;2023-04-03T04:39:46;1.20;99.90
16964;DHT22;8598;50.508;10.436;2023-04-03T04:42:14;0.40;99.90
16964;DHT22;8598;50.508;10.436;2023-04-03T04:44:40;0.40;99.90
16964;DHT22;8598;50.508;10.436;2023-04-03T04:47:07;0.40;99.90
16964;DHT22;8598;50.508;10.436;2023-04-03T04:49:34;0.40;99.90
16964;DHT22;8598;50.508;10.436;2023-04-03T04:52:00;0.40;99.90
16964;DHT22;8598;50.508;10.436;2023-04-03T04:54:27;0.30;99.90
16964;DHT22;8598;50.508;10.436;2023-04-03T04:56:53;0.30;99.90
16964;DHT22;8598;50.508;10.436;2023-04-03T04:59:21;0.30;99.90
16964;DHT22;8598;50.508;10.436;2023-04-03T05:01:48;0.30;99.90
16964;DHT22;8598;50.508;10.436;2023-04-03T05:04:15;0.30;99.90
16964;DHT22;8598;50.508;10.436;2023-04-03T05:06:42;0.40;99.90
16964;DHT22;8598;50.508;10.436;2023-04-03T05:09:09;0.40;99.90
16964;DHT22;8598;50.508;10.436;2023-04-03T05:11:36;0.40;99.90
16964;DHT22;8598;50.508;10.436;2023-04-03T05:14:02;0.40;99.90
16964;DHT22;8598;50.508;10.436;2023-04-03T05:16:33;0.50;99.90
16964;DHT22;8598;50.508;10.436;2023-04-03T05:19:00;0.50;99.90
16964;DHT22;8598;50.508;10.436;2023-04-03T05:21:26;0.50;99.90
16964;DHT22;8598;50.508;10.436;2023-04-03T05:23:57;0.60;99.90
16964;DHT22;8598;50.508;10.436;2023-04-03T05:26:24;0.60;99.90
16964;DHT22;8598;50.508;10.436;2023-04-03T05:28:50;0.70;99.90
16964;DHT22;8598;50.508;10.436;2023-04-03T05:31:17;0.70;99.90
16964;DHT22;8598;50.508;10.436;2023-04-03T05:33:45;0.70;99.90
16964;DHT22;8598;50.508;10.436;2023-04-03T05:36:12;0.70;99.90
16964;DHT22;8598;50.508;10.436;2023-04-03T05:38:39;0.70;99.90
16964;DHT22;8598;50.508;10.436;2023-04-03T05:41:06;0.70;99.90
16964;DHT22;8598;50.508;10.436;2023-04-03T05:43:32;0.80;99.90
16964;DHT22;8598;50.508;10.436;2023-04-03T05:46:00;0.80;99.90
16964;DHT22;8598;50.508;10.436;2023-04-03T05:48:26;0.90;99.90
16964;DHT22;8598;50.508;10.436;2023-04-03T05:50:54;0.90;99.90
16964;DHT22;8598;50.508;10.436;2023-04-03T05:53:22;1.00;99.90
16964;DHT22;8598;50.508;10.436;2023-04-03T05:55:51;1.20;99.90
16964;DHT22;8598;50.508;10.436;2023-04-03T05:58:19;1.60;99.90
16964;DHT22;8598;50.508;10.436;2023-04-03T06:00:45;1.90;99.90
16964;DHT22;8598;50.508;10.436;2023-04-03T06:03:12;2.30;99.90
16964;DHT22;8598;50.508;10.436;2023-04-03T06:05:39;2.80;99.90
16964;DHT22;8598;50.508;10.436;2023-04-03T06:08:07;3.40;99.90
16964;DHT22;8598;50.508;10.436;2023-04-03T06:10:34;4.10;99.90
16964;DHT22;8598;50.508;10.436;2023-04-03T06:13:01;4.40;99.90
16964;DHT22;8598;50.508;10.436;2023-04-03T06:15:28;4.20;99.90
16964;DHT22;8598;50.508;10.436;2023-04-03T06:17:54;3.90;99.90
16964;DHT22;8598;50.508;10.436;2023-04-03T06:20:21;3.30;99.90
16964;DHT22;8598;50.508;10.436;2023-04-03T06:22:48;2.90;99.90
16964;DHT22;8598;50.508;10.436;2023-04-03T06:25:17;2.40;99.90
16964;DHT22;8598;50.508;10.436;2023-04-03T06:27:44;2.50;99.90
16964;DHT22;8598;50.508;10.436;2023-04-03T06:30:11;2.60;99.90
16964;DHT22;8598;50.508;10.436;2023-04-03T06:32:38;2.40;99.90
16964;DHT22;8598;50.508;10.436;2023-04-03T06:35:05;2.40;99.90
16964;DHT22;8598;50.508;10.436;2023-04-03T06:37:32;2.80;99.90
16964;DHT22;8598;50.508;10.436;2023-04-03T06:39:59;3.20;99.90
16964;DHT22;8598;50.508;10.436;2023-04-03T06:42:27;3.40;99.90
16964;DHT22;8598;50.508;10.436;2023-04-03T06:44:54;3.50;99.90
16964;DHT22;8598;50.508;10.436;2023-04-03T06:47:20;3.60;99.90
16964;DHT22;8598;50.508;10.436;2023-04-03T06:49:47;3.50;99.90
16964;DHT22;8598;50.508;10.436;2023-04-03T06:52:13;3.20;99.90
16964;DHT22;8598;50.508;10.436;2023-04-03T06:54:40;2.70;99.90
16964;DHT22;8598;50.508;10.436;2023-04-03T06:57:07;2.90;99.90
16964;DHT22;8598;50.508;10.436;2023-04-03T06:59:36;2.30;99.90
16964;DHT22;8598;50.508;10.436;2023-04-03T07:02:02;2.20;99.90
16964;DHT22;8598;50.508;10.436;2023-04-03T07:04:29;2.00;99.90
16964;DHT22;8598;50.508;10.436;2023-04-03T07:06:56;1.90;99.90
16964;DHT22;8598;50.508;10.436;2023-04-03T07:09:22;1.80;99.90
16964;DHT22;8598;50.508;10.436;2023-04-03T07:11:49;1.90;99.90
16964;DHT22;8598;50.508;10.436;2023-04-03T07:14:16;2.00;99.90
16964;DHT22;8598;50.508;10.436;2023-04-03T07:16:44;1.80;99.90
16964;DHT22;8598;50.508;10.436;2023-04-03T07:19:11;1.90;99.90
16964;DHT22;8598;50.508;10.436;2023-04-03T07:21:37;2.30;99.90
16964;DHT22;8598;50.508;10.436;2023-04-03T07:24:04;3.30;99.90
16964;DHT22;8598;50.508;10.436;2023-04-03T07:26:31;3.30;99.90
16964;DHT22;8598;50.508;10.436;2023-04-03T07:28:57;3.60;99.90
16964;DHT22;8598;50.508;10.436;2023-04-03T07:31:25;3.80;99.90
16964;DHT22;8598;50.508;10.436;2023-04-03T07:33:53;4.20;99.90
16964;DHT22;8598;50.508;10.436;2023-04-03T07:36:22;4.50;99.90
16964;DHT22;8598;50.508;10.436;2023-04-03T07:38:49;4.10;99.90
16964;DHT22;8598;50.508;10.436;2023-04-03T07:41:17;4.00;99.90
16964;DHT22;8598;50.508;10.436;2023-04-03T07:43:45;4.10;99.90
16964;DHT22;8598;50.508;10.436;2023-04-03T07:46:12;4.40;99.90
16964;DHT22;8598;50.508;10.436;2023-04-03T07:48:39;4.20;99.90
16964;DHT22;8598;50.508;10.436;2023-04-03T07:51:06;4.30;99.90
16964;DHT22;8598;50.508;10.436;2023-04-03T07:53:33;3.80;99.90
16964;DHT22;8598;50.508;10.436;2023-04-03T07:56:00;3.50;99.90
16964;DHT22;8598;50.508;10.436;2023-04-03T07:58:28;3.70;99.90
16964;DHT22;8598;50.508;10.436;2023-04-03T08:00:55;4.20;99.90
16964;DHT22;8598;50.508;10.436;2023-04-03T08:03:22;4.10;99.90
16964;DHT22;8598;50.508;10.436;2023-04-03T08:05:49;4.30;99.90
16964;DHT22;8598;50.508;10.436;2023-04-03T08:08:21;3.60;99.90
16964;DHT22;8598;50.508;10.436;2023-04-03T08:10:49;3.50;99.90
16964;DHT22;8598;50.508;10.436;2023-04-03T08:13:16;3.10;99.90
16964;DHT22;8598;50.508;10.436;2023-04-03T08:15:43;2.70;99.90
16964;DHT22;8598;50.508;10.436;2023-04-03T08:18:10;2.60;99.90
16964;DHT22;8598;50.508;10.436;2023-04-03T08:20:38;2.60;99.90
16964;DHT22;8598;50.508;10.436;2023-04-03T08:23:05;3.30;99.90
16964;DHT22;8598;50.508;10.436;2023-04-03T08:25:34;4.00;99.90
16964;DHT22;8598;50.508;10.436;2023-04-03T08:28:01;4.50;99.90
16964;DHT22;8598;50.508;10.436;2023-04-03T08:30:28;4.40;99.90
16964;DHT22;8598;50.508;10.436;2023-04-03T08:32:55;4.40;99.90
16964;DHT22;8598;50.508;10.436;2023-04-03T08:35:21;4.50;99.90
16964;DHT22;8598;50.508;10.436;2023-04-03T08:37:48;5.00;99.90
16964;DHT22;8598;50.508;10.436;2023-04-03T08:40:16;5.20;99.90
16964;DHT22;8598;50.508;10.436;2023-04-03T08:42:51;5.10;99.90
16964;DHT22;8598;50.508;10.436;2023-04-03T08:45:22;4.50;99.90
16964;DHT22;8598;50.508;10.436;2023-04-03T08:47:57;4.20;99.90
16964;DHT22;8598;50.508;10.436;2023-04-03T08:50:30;4.10;99.90
16964;DHT22;8598;50.508;10.436;2023-04-03T08:52:59;4.70;99.90
16964;DHT22;8598;50.508;10.436;2023-04-03T08:55:29;4.70;99.90
16964;DHT22;8598;50.508;10.436;2023-04-03T08:58:01;4.80;99.90
16964;DHT22;8598;50.508;10.436;2023-04-03T09:00:31;4.50;99.90
16964;DHT22;8598;50.508;10.436;2023-04-03T09:03:00;4.40;99.90
16964;DHT22;8598;50.508;10.436;2023-04-03T09:05:35;4.00;99.90
16964;DHT22;8598;50.508;10.436;2023-04-03T09:08:12;4.30;99.90
16964;DHT22;8598;50.508;10.436;2023-04-03T09:10:42;4.10;99.90
16964;DHT22;8598;50.508;10.436;2023-04-03T09:13:13;4.10;99.90
16964;DHT22;8598;50.508;10.436;2023-04-03T09:15:46;4.10;99.90
16964;DHT22;8598;50.508;10.436;2023-04-03T09:18:16;4.20;99.90
16964;DHT22;8598;50.508;10.436;2023-04-03T09:20:49;4.10;99.90
16964;DHT22;8598;50.508;10.436;2023-04-03T09:23:24;4.30;99.90
16964;DHT22;8598;50.508;10.436;2023-04-03T09:25:56;4.20;99.90
16964;DHT22;8598;50.508;10.436;2023-04-03T09:28:25;4.40;99.90
16964;DHT22;8598;50.508;10.436;2023-04-03T09:30:53;4.40;99.90
16964;DHT22;8598;50.508;10.436;2023-04-03T09:33:20;4.50;99.90
16964;DHT22;8598;50.508;10.436;2023-04-03T09:35:48;4.40;99.90
16964;DHT22;8598;50.508;10.436;2023-04-03T09:38:19;4.60;99.90
16964;DHT22;8598;50.508;10.436;2023-04-03T09:40:48;4.50;99.90
16964;DHT22;8598;50.508;10.436;2023-04-03T09:43:26;4.50;99.90
16964;DHT22;8598;50.508;10.436;2023-04-03T09:45:54;4.50;99.90
16964;DHT22;8598;50.508;10.436;2023-04-03T09:48:23;4.40;99.90
16964;DHT22;8598;50.508;10.436;2023-04-03T09:50:58;4.60;99.90
16964;DHT22;8598;50.508;10.436;2023-04-03T09:53:36;4.60;99.90
16964;DHT22;8598;50.508;10.436;2023-04-03T09:56:09;4.70;99.90
16964;DHT22;8598;50.508;10.436;2023-04-03T09:58:47;4.70;99.90
16964;DHT22;8598;50.508;10.436;2023-04-03T10:01:26;4.60;99.90
16964;DHT22;8598;50.508;10.436;2023-04-03T10:04:06;4.70;99.90
16964;DHT22;8598;50.508;10.436;2023-04-03T10:06:35;4.80;99.90
16964;DHT22;8598;50.508;10.436;2023-04-03T10:09:04;4.80;99.90
16964;DHT22;8598;50.508;10.436;2023-04-03T10:11:32;5.00;99.90
16964;DHT22;8598;50.508;10.436;2023-04-03T10:14:01;5.10;99.90
16964;DHT22;8598;50.508;10.436;2023-04-03T10:16:35;5.10;99.90
16964;DHT22;8598;50.508;10.436;2023-04-03T10:19:12;5.10;99.90
16964;DHT22;8598;50.508;10.436;2023-04-03T10:21:44;5.20;99.90
16964;DHT22;8598;50.508;10.436;2023-04-03T10:24:13;4.90;99.90
16964;DHT22;8598;50.508;10.436;2023-04-03T10:26:51;4.90;99.90
16964;DHT22;8598;50.508;10.436;2023-04-03T10:29:31;5.00;99.90
16964;DHT22;8598;50.508;10.436;2023-04-03T10:32:16;5.00;99.90
16964;DHT22;8598;50.508;10.436;2023-04-03T10:34:53;5.30;99.90
16964;DHT22;8598;50.508;10.436;2023-04-03T10:37:26;5.30;99.90
16964;DHT22;8598;50.508;10.436;2023-04-03T10:39:59;5.30;99.90
16964;DHT22;8598;50.508;10.436;2023-04-03T10:42:31;5.50;99.90
16964;DHT22;8598;50.508;10.436;2023-04-03T10:45:15;5.50;99.90
16964;DHT22;8598;50.508;10.436;2023-04-03T10:47:51;5.90;99.90
16964;DHT22;8598;50.508;10.436;2023-04-03T10:50:29;5.70;99.90
16964;DHT22;8598;50.508;10.436;2023-04-03T10:53:01;5.50;99.90
16964;DHT22;8598;50.508;10.436;2023-04-03T10:55:35;5.30;99.90
16964;DHT22;8598;50.508;10.436;2023-04-03T10:58:05;4.90;99.90
16964;DHT22;8598;50.508;10.436;2023-04-03T11:00:37;4.70;99.90
16964;DHT22;8598;50.508;10.436;2023-04-03T11:03:08;4.70;99.90
16964;DHT22;8598;50.508;10.436;2023-04-03T11:05:39;4.90;99.90
16964;DHT22;8598;50.508;10.436;2023-04-03T11:08:13;5.10;99.90
16964;DHT22;8598;50.508;10.436;2023-04-03T11:10:44;5.40;99.90
16964;DHT22;8598;50.508;10.436;2023-04-03T11:13:14;5.30;99.90
16964;DHT22;8598;50.508;10.436;2023-04-03T11:15:44;5.40;99.90
16964;DHT22;8598;50.508;10.436;2023-04-03T11:18:13;5.40;99.90
16964;DHT22;8598;50.508;10.436;2023-04-03T11:20:53;5.40;99.90
16964;DHT22;8598;50.508;10.436;2023-04-03T11:23:25;5.30;99.90
16964;DHT22;8598;50.508;10.436;2023-04-03T11:25:55;5.30;99.90
16964;DHT22;8598;50.508;10.436;2023-04-03T11:28:26;5.30;99.90
16964;DHT22;8598;50.508;10.436;2023-04-03T11:31:01;5.30;99.90
16964;DHT22;8598;50.508;10.436;2023-04-03T11:33:45;5.20;99.90
16964;DHT22;8598;50.508;10.436;2023-04-03T11:36:19;5.30;99.90
16964;DHT22;8598;50.508;10.436;2023-04-03T11:38:49;5.30;99.90
16964;DHT22;8598;50.508;10.436;2023-04-03T11:41:25;5.40;99.90
16964;DHT22;8598;50.508;10.436;2023-04-03T11:43:57;5.30;99.90
16964;DHT22;8598;50.508;10.436;2023-04-03T11:46:52;5.40;99.90
16964;DHT22;8598;50.508;10.436;2023-04-03T11:49:54;5.50;99.90
16964;DHT22;8598;50.508;10.436;2023-04-03T11:52:55;5.50;99.90
16964;DHT22;8598;50.508;10.436;2023-04-03T11:55:42;5.30;99.90
16964;DHT22;8598;50.508;10.436;2023-04-03T11:58:14;5.30;99.90
16964;DHT22;8598;50.508;10.436;2023-04-03T12:00:54;5.10;99.90
16964;DHT22;8598;50.508;10.436;2023-04-03T12:09:28;5.70;99.90
16964;DHT22;8598;50.508;10.436;2023-04-03T12:11:56;6.00;99.90
16964;DHT22;8598;50.508;10.436;2023-04-03T12:14:24;5.70;99.90
16964;DHT22;8598;50.508;10.436;2023-04-03T12:16:53;6.00;99.90
16964;DHT22;8598;50.508;10.436;2023-04-03T12:19:36;6.20;99.90
16964;DHT22;8598;50.508;10.436;2023-04-03T12:22:17;6.30;99.90
16964;DHT22;8598;50.508;10.436;2023-04-03T12:24:47;6.10;99.90
16964;DHT22;8598;50.508;10.436;2023-04-03T12:27:22;6.20;99.90
16964;DHT22;8598;50.508;10.436;2023-04-03T12:29:54;6.20;99.90
16964;DHT22;8598;50.508;10.436;2023-04-03T12:32:32;6.00;99.90
16964;DHT22;8598;50.508;10.436;2023-04-03T12:35:10;5.90;99.90
16964;DHT22;8598;50.508;10.436;2023-04-03T12:37:48;5.90;99.90
16964;DHT22;8598;50.508;10.436;2023-04-03T12:40:25;5.70;99.90
16964;DHT22;8598;50.508;10.436;2023-04-03T12:43:18;5.60;99.90
16964;DHT22;8598;50.508;10.436;2023-04-03T12:45:49;5.70;99.90
16964;DHT22;8598;50.508;10.436;2023-04-03T12:48:22;5.60;99.90
16964;DHT22;8598;50.508;10.436;2023-04-03T12:50:52;5.30;99.90
16964;DHT22;8598;50.508;10.436;2023-04-03T12:53:20;5.10;99.90
16964;DHT22;8598;50.508;10.436;2023-04-03T12:55:47;5.30;99.90
16964;DHT22;8598;50.508;10.436;2023-04-03T12:58:17;5.50;99.90
16964;DHT22;8598;50.508;10.436;2023-04-03T13:00:59;5.50;99.90
16964;DHT22;8598;50.508;10.436;2023-04-03T13:03:26;5.60;99.90
16964;DHT22;8598;50.508;10.436;2023-04-03T13:05:57;5.80;99.90
16964;DHT22;8598;50.508;10.436;2023-04-03T13:08:25;5.80;99.90
16964;DHT22;8598;50.508;10.436;2023-04-03T13:10:55;5.50;99.90
16964;DHT22;8598;50.508;10.436;2023-04-03T13:13:22;5.80;99.90
16964;DHT22;8598;50.508;10.436;2023-04-03T13:15:49;5.90;99.90
16964;DHT22;8598;50.508;10.436;2023-04-03T13:18:25;6.10;99.90
16964;DHT22;8598;50.508;10.436;2023-04-03T13:20:55;6.10;99.90
16964;DHT22;8598;50.508;10.436;2023-04-03T13:23:24;5.90;99.90
16964;DHT22;8598;50.508;10.436;2023-04-03T13:25:51;5.90;99.90
16964;DHT22;8598;50.508;10.436;2023-04-03T13:28:20;5.60;99.90
16964;DHT22;8598;50.508;10.436;2023-04-03T13:30:56;5.60;99.90
16964;DHT22;8598;50.508;10.436;2023-04-03T13:33:27;5.70;99.90
16964;DHT22;8598;50.508;10.436;2023-04-03T13:35:58;5.60;99.90
16964;DHT22;8598;50.508;10.436;2023-04-03T13:38:29;5.70;99.90
16964;DHT22;8598;50.508;10.436;2023-04-03T13:40:59;5.70;99.90
16964;DHT22;8598;50.508;10.436;2023-04-03T13:43:29;5.80;99.90
16964;DHT22;8598;50.508;10.436;2023-04-03T13:46:03;5.60;99.90
16964;DHT22;8598;50.508;10.436;2023-04-03T13:48:39;5.50;99.90
16964;DHT22;8598;50.508;10.436;2023-04-03T13:51:20;5.50;99.90
16964;DHT22;8598;50.508;10.436;2023-04-03T13:53:50;5.70;99.90
16964;DHT22;8598;50.508;10.436;2023-04-03T13:56:22;5.70;99.90
16964;DHT22;8598;50.508;10.436;2023-04-03T13:58:57;5.70;99.90
16964;DHT22;8598;50.508;10.436;2023-04-03T14:01:25;5.70;99.90
16964;DHT22;8598;50.508;10.436;2023-04-03T14:03:55;5.60;99.90
16964;DHT22;8598;50.508;10.436;2023-04-03T14:06:24;5.80;99.90
16964;DHT22;8598;50.508;10.436;2023-04-03T14:08:51;5.80;99.90
16964;DHT22;8598;50.508;10.436;2023-04-03T14:11:20;6.10;99.90
16964;DHT22;8598;50.508;10.436;2023-04-03T14:13:48;6.10;99.90
16964;DHT22;8598;50.508;10.436;2023-04-03T14:16:19;5.90;99.90
16964;DHT22;8598;50.508;10.436;2023-04-03T14:18:46;5.80;99.90
16964;DHT22;8598;50.508;10.436;2023-04-03T14:21:15;5.80;99.90
16964;DHT22;8598;50.508;10.436;2023-04-03T14:23:44;5.70;99.90
16964;DHT22;8598;50.508;10.436;2023-04-03T14:26:13;5.60;99.90
16964;DHT22;8598;50.508;10.436;2023-04-03T14:28:42;5.60;99.90
16964;DHT22;8598;50.508;10.436;2023-04-03T14:31:10;5.60;99.90
16964;DHT22;8598;50.508;10.436;2023-04-03T14:33:37;5.70;99.90
16964;DHT22;8598;50.508;10.436;2023-04-03T14:36:12;5.60;99.90
16964;DHT22;8598;50.508;10.436;2023-04-03T14:38:40;5.90;99.90
16964;DHT22;8598;50.508;10.436;2023-04-03T14:41:09;6.20;99.90
16964;DHT22;8598;50.508;10.436;2023-04-03T14:43:37;6.30;99.90
16964;DHT22;8598;50.508;10.436;2023-04-03T14:46:04;6.10;99.90
16964;DHT22;8598;50.508;10.436;2023-04-03T14:48:31;6.10;99.90
16964;DHT22;8598;50.508;10.436;2023-04-03T14:50:58;6.00;99.90
16964;DHT22;8598;50.508;10.436;2023-04-03T14:53:25;5.60;99.90
16964;DHT22;8598;50.508;10.436;2023-04-03T14:55:52;5.20;99.90
16964;DHT22;8598;50.508;10.436;2023-04-03T14:58:20;4.80;99.90
16964;DHT22;8598;50.508;10.436;2023-04-03T15:00:47;4.80;99.90
16964;DHT22;8598;50.508;10.436;2023-04-03T15:03:16;4.90;99.90
16964;DHT22;8598;50.508;10.436;2023-04-03T15:05:44;4.60;99.90
16964;DHT22;8598;50.508;10.436;2023-04-03T15:08:19;5.40;99.90
16964;DHT22;8598;50.508;10.436;2023-04-03T15:10:47;5.70;99.90
16964;DHT22;8598;50.508;10.436;2023-04-03T15:13:14;5.60;99.90
16964;DHT22;8598;50.508;10.436;2023-04-03T15:15:42;5.50;99.90
16964;DHT22;8598;50.508;10.436;2023-04-03T15:18:14;5.20;99.90
16964;DHT22;8598;50.508;10.436;2023-04-03T15:20:41;5.20;99.90
16964;DHT22;8598;50.508;10.436;2023-04-03T15:23:09;5.20;99.90
16964;DHT22;8598;50.508;10.436;2023-04-03T15:25:36;5.40;99.90
16964;DHT22;8598;50.508;10.436;2023-04-03T15:28:03;5.50;99.90
16964;DHT22;8598;50.508;10.436;2023-04-03T15:30:30;5.50;99.90
16964;DHT22;8598;50.508;10.436;2023-04-03T15:32:58;5.50;99.90
16964;DHT22;8598;50.508;10.436;2023-04-03T15:35:25;5.50;99.90
16964;DHT22;8598;50.508;10.436;2023-04-03T15:37:52;5.60;99.90
16964;DHT22;8598;50.508;10.436;2023-04-03T15:40:18;5.30;99.90
16964;DHT22;8598;50.508;10.436;2023-04-03T15:42:45;5.20;99.90
16964;DHT22;8598;50.508;10.436;2023-04-03T15:45:12;5.00;99.90
16964;DHT22;8598;50.508;10.436;2023-04-03T15:47:39;4.80;99.90
16964;DHT22;8598;50.508;10.436;2023-04-03T15:50:08;4.60;99.90
16964;DHT22;8598;50.508;10.436;2023-04-03T15:52:35;4.60;99.90
16964;DHT22;8598;50.508;10.436;2023-04-03T15:55:02;4.80;99.90
16964;DHT22;8598;50.508;10.436;2023-04-03T15:57:29;4.90;99.90
16964;DHT22;8598;50.508;10.436;2023-04-03T15:59:55;4.80;99.90
16964;DHT22;8598;50.508;10.436;2023-04-03T16:02:22;4.80;99.90
16964;DHT22;8598;50.508;10.436;2023-04-03T16:04:53;4.70;99.90
16964;DHT22;8598;50.508;10.436;2023-04-03T16:07:21;4.60;99.90